sensor_id;sensor_type;location;lat;lon;timestamp;P1;durP1;ratioP1;P2;durP2;ratioP2
32641;SDS011;19323;56.072;9.698;2022-11-20T00:02:11;0.90;;;0.60;;
32641;SDS011;19323;56.072;9.698;2022-11-20T00:04:36;1.20;;;0.75;;
32641;SDS011;19323;56.072;9.698;2022-11-20T00:07:02;1.83;;;0.40;;
32641;SDS011;19323;56.072;9.698;2022-11-20T00:09:27;0.88;;;0.30;;
32641;SDS011;19323;56.072;9.698;2022-11-20T00:11:52;1.17;;;0.60;;
32641;SDS011;19323;56.072;9.698;2022-11-20T00:14:17;1.02;;;0.52;;
32641;SDS011;19323;56.072;9.698;2022-11-20T00:16:43;1.05;;;0.40;;
32641;SDS011;19323;56.072;9.698;2022-11-20T00:19:09;0.85;;;0.25;;
32641;SDS011;19323;56.072;9.698;2022-11-20T00:21:34;0.70;;;0.40;;
32641;SDS011;19323;56.072;9.698;2022-11-20T00:23:59;0.73;;;0.35;;
32641;SDS011;19323;56.072;9.698;2022-11-20T00:26:25;0.40;;;0.32;;
32641;SDS011;19323;56.072;9.698;2022-11-20T00:28:52;0.80;;;0.43;;
32641;SDS011;19323;56.072;9.698;2022-11-20T00:31:19;1.33;;;0.47;;
32641;SDS011;19323;56.072;9.698;2022-11-20T00:33:44;0.75;;;0.38;;
32641;SDS011;19323;56.072;9.698;2022-11-20T00:36:12;0.52;;;0.40;;
32641;SDS011;19323;56.072;9.698;2022-11-20T00:38:41;0.82;;;0.40;;
32641;SDS011;19323;56.072;9.698;2022-11-20T00:41:08;1.58;;;0.50;;
32641;SDS011;19323;56.072;9.698;2022-11-20T00:43:35;1.05;;;0.47;;
32641;SDS011;19323;56.072;9.698;2022-11-20T00:48:28;0.88;;;0.40;;
32641;SDS011;19323;56.072;9.698;2022-11-20T00:50:54;0.52;;;0.20;;
32641;SDS011;19323;56.072;9.698;2022-11-20T00:53:20;0.52;;;0.30;;
32641;SDS011;19323;56.072;9.698;2022-11-20T00:58:39;0.70;;;0.30;;
32641;SDS011;19323;56.072;9.698;2022-11-20T01:01:07;0.93;;;0.40;;
32641;SDS011;19323;56.072;9.698;2022-11-20T01:03:34;0.95;;;0.43;;
32641;SDS011;19323;56.072;9.698;2022-11-20T01:06:03;0.77;;;0.30;;
32641;SDS011;19323;56.072;9.698;2022-11-20T01:08:32;0.70;;;0.32;;
32641;SDS011;19323;56.072;9.698;2022-11-20T01:11:00;0.90;;;0.30;;
32641;SDS011;19323;56.072;9.698;2022-11-20T01:13:27;0.65;;;0.30;;
32641;SDS011;19323;56.072;9.698;2022-11-20T01:16:09;0.85;;;0.30;;
32641;SDS011;19323;56.072;9.698;2022-11-20T01:18:37;0.77;;;0.10;;
32641;SDS011;19323;56.072;9.698;2022-11-20T01:21:05;0.50;;;0.30;;
32641;SDS011;19323;56.072;9.698;2022-11-20T01:23:34;1.40;;;0.50;;
32641;SDS011;19323;56.072;9.698;2022-11-20T01:26:03;0.77;;;0.20;;
32641;SDS011;19323;56.072;9.698;2022-11-20T01:28:29;0.45;;;0.20;;
32641;SDS011;19323;56.072;9.698;2022-11-20T01:30:55;1.30;;;0.38;;
32641;SDS011;19323;56.072;9.698;2022-11-20T01:33:21;0.50;;;0.20;;
32641;SDS011;19323;56.072;9.698;2022-11-20T01:35:47;0.90;;;0.43;;
32641;SDS011;19323;56.072;9.698;2022-11-20T01:38:12;0.47;;;0.20;;
32641;SDS011;19323;56.072;9.698;2022-11-20T01:40:37;1.17;;;0.30;;
32641;SDS011;19323;56.072;9.698;2022-11-20T01:43:18;1.35;;;0.22;;
32641;SDS011;19323;56.072;9.698;2022-11-20T01:48:15;0.70;;;0.30;;
32641;SDS011;19323;56.072;9.698;2022-11-20T01:50:41;0.30;;;0.10;;
32641;SDS011;19323;56.072;9.698;2022-11-20T01:53:08;3.00;;;0.20;;
32641;SDS011;19323;56.072;9.698;2022-11-20T01:55:41;0.88;;;0.40;;
32641;SDS011;19323;56.072;9.698;2022-11-20T01:58:12;0.43;;;0.30;;
32641;SDS011;19323;56.072;9.698;2022-11-20T02:00:38;1.20;;;0.30;;
32641;SDS011;19323;56.072;9.698;2022-11-20T02:03:12;0.20;;;0.20;;
32641;SDS011;19323;56.072;9.698;2022-11-20T02:05:43;0.38;;;0.20;;
32641;SDS011;19323;56.072;9.698;2022-11-20T02:08:14;0.40;;;0.20;;
32641;SDS011;19323;56.072;9.698;2022-11-20T02:10:40;0.35;;;0.20;;
32641;SDS011;19323;56.072;9.698;2022-11-20T02:13:05;0.30;;;0.20;;
32641;SDS011;19323;56.072;9.698;2022-11-20T02:15:50;0.82;;;0.52;;
32641;SDS011;19323;56.072;9.698;2022-11-20T02:18:17;2.03;;;0.45;;
32641;SDS011;19323;56.072;9.698;2022-11-20T02:20:45;0.22;;;0.20;;
32641;SDS011;19323;56.072;9.698;2022-11-20T02:23:13;0.43;;;0.20;;
32641;SDS011;19323;56.072;9.698;2022-11-20T02:25:54;0.75;;;0.20;;
32641;SDS011;19323;56.072;9.698;2022-11-20T02:28:22;0.63;;;0.10;;
32641;SDS011;19323;56.072;9.698;2022-11-20T02:30:48;0.28;;;0.17;;
32641;SDS011;19323;56.072;9.698;2022-11-20T02:33:13;0.32;;;0.20;;
32641;SDS011;19323;56.072;9.698;2022-11-20T02:35:39;0.80;;;0.20;;
32641;SDS011;19323;56.072;9.698;2022-11-20T02:38:09;0.55;;;0.35;;
32641;SDS011;19323;56.072;9.698;2022-11-20T02:40:35;1.55;;;0.13;;
32641;SDS011;19323;56.072;9.698;2022-11-20T02:43:00;0.65;;;0.20;;
32641;SDS011;19323;56.072;9.698;2022-11-20T02:45:25;2.90;;;0.30;;
32641;SDS011;19323;56.072;9.698;2022-11-20T02:47:51;0.50;;;0.30;;
32641;SDS011;19323;56.072;9.698;2022-11-20T02:50:17;0.30;;;0.30;;
32641;SDS011;19323;56.072;9.698;2022-11-20T02:52:43;0.45;;;0.20;;
32641;SDS011;19323;56.072;9.698;2022-11-20T02:55:08;0.43;;;0.15;;
32641;SDS011;19323;56.072;9.698;2022-11-20T02:57:34;1.48;;;0.20;;
32641;SDS011;19323;56.072;9.698;2022-11-20T02:59:59;0.32;;;0.28;;
32641;SDS011;19323;56.072;9.698;2022-11-20T03:02:25;0.20;;;0.10;;
32641;SDS011;19323;56.072;9.698;2022-11-20T03:04:50;1.33;;;0.40;;
32641;SDS011;19323;56.072;9.698;2022-11-20T03:07:16;0.55;;;0.20;;
32641;SDS011;19323;56.072;9.698;2022-11-20T03:09:41;0.47;;;0.20;;
32641;SDS011;19323;56.072;9.698;2022-11-20T03:12:06;0.47;;;0.10;;
32641;SDS011;19323;56.072;9.698;2022-11-20T03:14:32;0.47;;;0.25;;
32641;SDS011;19323;56.072;9.698;2022-11-20T03:16:57;0.75;;;0.20;;
32641;SDS011;19323;56.072;9.698;2022-11-20T03:19:22;0.82;;;0.25;;
32641;SDS011;19323;56.072;9.698;2022-11-20T03:21:48;3.75;;;0.20;;
32641;SDS011;19323;56.072;9.698;2022-11-20T03:24:14;0.50;;;0.20;;
32641;SDS011;19323;56.072;9.698;2022-11-20T03:26:40;1.33;;;0.30;;
32641;SDS011;19323;56.072;9.698;2022-11-20T03:29:05;0.80;;;0.17;;
32641;SDS011;19323;56.072;9.698;2022-11-20T03:31:32;0.63;;;0.10;;
32641;SDS011;19323;56.072;9.698;2022-11-20T03:33:59;0.45;;;0.28;;
32641;SDS011;19323;56.072;9.698;2022-11-20T03:36:25;0.63;;;0.20;;
32641;SDS011;19323;56.072;9.698;2022-11-20T03:38:52;0.30;;;0.10;;
32641;SDS011;19323;56.072;9.698;2022-11-20T03:41:23;0.75;;;0.10;;
32641;SDS011;19323;56.072;9.698;2022-11-20T03:46:16;0.70;;;0.28;;
32641;SDS011;19323;56.072;9.698;2022-11-20T03:48:41;0.35;;;0.17;;
32641;SDS011;19323;56.072;9.698;2022-11-20T03:51:07;0.47;;;0.28;;
32641;SDS011;19323;56.072;9.698;2022-11-20T03:53:36;0.32;;;0.10;;
32641;SDS011;19323;56.072;9.698;2022-11-20T03:56:02;1.33;;;0.20;;
32641;SDS011;19323;56.072;9.698;2022-11-20T03:58:27;0.40;;;0.25;;
32641;SDS011;19323;56.072;9.698;2022-11-20T04:00:52;0.63;;;0.20;;
32641;SDS011;19323;56.072;9.698;2022-11-20T04:03:18;1.20;;;0.22;;
32641;SDS011;19323;56.072;9.698;2022-11-20T04:05:43;0.47;;;0.10;;
32641;SDS011;19323;56.072;9.698;2022-11-20T04:08:09;0.60;;;0.10;;
32641;SDS011;19323;56.072;9.698;2022-11-20T04:10:34;1.10;;;0.10;;
32641;SDS011;19323;56.072;9.698;2022-11-20T04:12:59;0.68;;;0.30;;
32641;SDS011;19323;56.072;9.698;2022-11-20T04:15:25;0.13;;;0.10;;
32641;SDS011;19323;56.072;9.698;2022-11-20T04:17:50;0.20;;;0.10;;
32641;SDS011;19323;56.072;9.698;2022-11-20T04:20:15;0.85;;;0.20;;
32641;SDS011;19323;56.072;9.698;2022-11-20T04:22:41;0.08;;;0.05;;
32641;SDS011;19323;56.072;9.698;2022-11-20T04:25:06;0.17;;;0.00;;
32641;SDS011;19323;56.072;9.698;2022-11-20T04:27:32;0.35;;;0.10;;
32641;SDS011;19323;56.072;9.698;2022-11-20T04:29:57;0.80;;;0.10;;
32641;SDS011;19323;56.072;9.698;2022-11-20T04:32:22;0.50;;;0.20;;
32641;SDS011;19323;56.072;9.698;2022-11-20T04:34:48;0.20;;;0.10;;
32641;SDS011;19323;56.072;9.698;2022-11-20T04:37:13;2.72;;;0.30;;
32641;SDS011;19323;56.072;9.698;2022-11-20T04:39:38;1.45;;;0.10;;
32641;SDS011;19323;56.072;9.698;2022-11-20T04:42:04;0.40;;;0.20;;
32641;SDS011;19323;56.072;9.698;2022-11-20T04:44:48;0.77;;;0.20;;
32641;SDS011;19323;56.072;9.698;2022-11-20T04:47:13;0.22;;;0.03;;
32641;SDS011;19323;56.072;9.698;2022-11-20T04:49:38;2.42;;;0.10;;
32641;SDS011;19323;56.072;9.698;2022-11-20T04:52:03;0.52;;;0.25;;
32641;SDS011;19323;56.072;9.698;2022-11-20T04:54:29;1.60;;;0.10;;
32641;SDS011;19323;56.072;9.698;2022-11-20T04:56:54;1.85;;;0.20;;
32641;SDS011;19323;56.072;9.698;2022-11-20T04:59:19;0.30;;;0.10;;
32641;SDS011;19323;56.072;9.698;2022-11-20T05:01:44;1.98;;;0.10;;
32641;SDS011;19323;56.072;9.698;2022-11-20T05:04:10;0.55;;;0.30;;
32641;SDS011;19323;56.072;9.698;2022-11-20T05:06:35;7.30;;;0.20;;
32641;SDS011;19323;56.072;9.698;2022-11-20T05:09:01;0.90;;;0.10;;
32641;SDS011;19323;56.072;9.698;2022-11-20T05:11:27;1.25;;;0.30;;
32641;SDS011;19323;56.072;9.698;2022-11-20T05:13:54;0.77;;;0.10;;
32641;SDS011;19323;56.072;9.698;2022-11-20T05:16:22;0.40;;;0.10;;
32641;SDS011;19323;56.072;9.698;2022-11-20T05:18:49;0.55;;;0.30;;
32641;SDS011;19323;56.072;9.698;2022-11-20T05:21:16;1.13;;;0.10;;
32641;SDS011;19323;56.072;9.698;2022-11-20T05:23:41;1.45;;;0.40;;
32641;SDS011;19323;56.072;9.698;2022-11-20T05:26:08;0.20;;;0.10;;
32641;SDS011;19323;56.072;9.698;2022-11-20T05:28:38;3.28;;;0.30;;
32641;SDS011;19323;56.072;9.698;2022-11-20T05:31:13;0.98;;;0.22;;
32641;SDS011;19323;56.072;9.698;2022-11-20T05:33:41;5.90;;;0.47;;
32641;SDS011;19323;56.072;9.698;2022-11-20T05:36:07;1.17;;;0.17;;
32641;SDS011;19323;56.072;9.698;2022-11-20T05:38:34;1.05;;;0.50;;
32641;SDS011;19323;56.072;9.698;2022-11-20T05:41:06;1.00;;;0.30;;
32641;SDS011;19323;56.072;9.698;2022-11-20T05:43:37;0.98;;;0.28;;
32641;SDS011;19323;56.072;9.698;2022-11-20T05:46:03;1.45;;;0.60;;
32641;SDS011;19323;56.072;9.698;2022-11-20T05:48:31;3.92;;;0.20;;
32641;SDS011;19323;56.072;9.698;2022-11-20T05:50:57;1.17;;;0.30;;
32641;SDS011;19323;56.072;9.698;2022-11-20T05:53:24;0.50;;;0.10;;
32641;SDS011;19323;56.072;9.698;2022-11-20T05:55:59;1.40;;;0.47;;
32641;SDS011;19323;56.072;9.698;2022-11-20T05:58:30;2.50;;;0.30;;
32641;SDS011;19323;56.072;9.698;2022-11-20T06:01:30;2.22;;;0.35;;
32641;SDS011;19323;56.072;9.698;2022-11-20T06:03:50;1.88;;;0.40;;
32641;SDS011;19323;56.072;9.698;2022-11-20T06:06:16;1.23;;;0.20;;
32641;SDS011;19323;56.072;9.698;2022-11-20T06:08:43;0.45;;;0.20;;
32641;SDS011;19323;56.072;9.698;2022-11-20T06:11:09;3.55;;;0.20;;
32641;SDS011;19323;56.072;9.698;2022-11-20T06:13:36;1.10;;;0.22;;
32641;SDS011;19323;56.072;9.698;2022-11-20T06:16:02;2.42;;;0.43;;
32641;SDS011;19323;56.072;9.698;2022-11-20T06:18:28;1.55;;;0.35;;
32641;SDS011;19323;56.072;9.698;2022-11-20T06:21:04;1.08;;;0.20;;
32641;SDS011;19323;56.072;9.698;2022-11-20T06:23:30;0.32;;;0.22;;
32641;SDS011;19323;56.072;9.698;2022-11-20T06:25:58;0.40;;;0.10;;
32641;SDS011;19323;56.072;9.698;2022-11-20T06:28:26;1.02;;;0.20;;
32641;SDS011;19323;56.072;9.698;2022-11-20T06:30:51;2.30;;;0.22;;
32641;SDS011;19323;56.072;9.698;2022-11-20T06:33:17;1.33;;;0.38;;
32641;SDS011;19323;56.072;9.698;2022-11-20T06:35:42;1.05;;;0.47;;
32641;SDS011;19323;56.072;9.698;2022-11-20T06:38:07;1.08;;;0.30;;
32641;SDS011;19323;56.072;9.698;2022-11-20T06:40:32;0.13;;;0.10;;
32641;SDS011;19323;56.072;9.698;2022-11-20T06:42:58;0.75;;;0.20;;
32641;SDS011;19323;56.072;9.698;2022-11-20T06:45:23;1.75;;;0.50;;
32641;SDS011;19323;56.072;9.698;2022-11-20T06:47:48;0.82;;;0.10;;
32641;SDS011;19323;56.072;9.698;2022-11-20T06:50:13;1.23;;;0.20;;
32641;SDS011;19323;56.072;9.698;2022-11-20T06:52:39;1.20;;;0.30;;
32641;SDS011;19323;56.072;9.698;2022-11-20T06:55:04;0.68;;;0.30;;
32641;SDS011;19323;56.072;9.698;2022-11-20T06:57:30;1.52;;;0.20;;
32641;SDS011;19323;56.072;9.698;2022-11-20T06:59:55;0.68;;;0.20;;
32641;SDS011;19323;56.072;9.698;2022-11-20T07:02:20;2.88;;;0.20;;
32641;SDS011;19323;56.072;9.698;2022-11-20T07:04:45;0.50;;;0.20;;
32641;SDS011;19323;56.072;9.698;2022-11-20T07:07:11;0.57;;;0.22;;
32641;SDS011;19323;56.072;9.698;2022-11-20T07:09:36;0.43;;;0.13;;
32641;SDS011;19323;56.072;9.698;2022-11-20T07:12:01;1.27;;;0.15;;
32641;SDS011;19323;56.072;9.698;2022-11-20T07:14:26;0.43;;;0.20;;
32641;SDS011;19323;56.072;9.698;2022-11-20T07:16:52;0.80;;;0.38;;
32641;SDS011;19323;56.072;9.698;2022-11-20T07:19:17;0.70;;;0.35;;
32641;SDS011;19323;56.072;9.698;2022-11-20T07:21:42;4.30;;;0.82;;
32641;SDS011;19323;56.072;9.698;2022-11-20T07:24:08;0.88;;;0.28;;
32641;SDS011;19323;56.072;9.698;2022-11-20T07:26:33;4.57;;;0.55;;
32641;SDS011;19323;56.072;9.698;2022-11-20T07:28:58;7.90;;;1.13;;
32641;SDS011;19323;56.072;9.698;2022-11-20T07:31:24;1.23;;;0.60;;
32641;SDS011;19323;56.072;9.698;2022-11-20T07:33:49;2.55;;;0.40;;
32641;SDS011;19323;56.072;9.698;2022-11-20T07:36:14;9.45;;;0.85;;
32641;SDS011;19323;56.072;9.698;2022-11-20T07:38:40;8.40;;;1.05;;
32641;SDS011;19323;56.072;9.698;2022-11-20T07:41:05;7.07;;;0.68;;
32641;SDS011;19323;56.072;9.698;2022-11-20T07:43:30;4.88;;;1.00;;
32641;SDS011;19323;56.072;9.698;2022-11-20T07:45:56;12.75;;;1.17;;
32641;SDS011;19323;56.072;9.698;2022-11-20T07:48:22;9.35;;;1.05;;
32641;SDS011;19323;56.072;9.698;2022-11-20T07:50:48;12.10;;;1.50;;
32641;SDS011;19323;56.072;9.698;2022-11-20T07:53:13;11.05;;;1.98;;
32641;SDS011;19323;56.072;9.698;2022-11-20T07:55:39;9.95;;;1.73;;
32641;SDS011;19323;56.072;9.698;2022-11-20T07:58:04;5.57;;;1.58;;
32641;SDS011;19323;56.072;9.698;2022-11-20T08:00:29;8.63;;;1.65;;
32641;SDS011;19323;56.072;9.698;2022-11-20T08:02:55;9.40;;;1.50;;
32641;SDS011;19323;56.072;9.698;2022-11-20T08:05:20;13.88;;;2.28;;
32641;SDS011;19323;56.072;9.698;2022-11-20T08:07:46;10.38;;;1.75;;
32641;SDS011;19323;56.072;9.698;2022-11-20T08:10:12;9.27;;;2.08;;
32641;SDS011;19323;56.072;9.698;2022-11-20T08:12:45;9.65;;;1.88;;
32641;SDS011;19323;56.072;9.698;2022-11-20T08:15:30;7.50;;;1.80;;
32641;SDS011;19323;56.072;9.698;2022-11-20T08:18:00;15.43;;;1.88;;
32641;SDS011;19323;56.072;9.698;2022-11-20T08:20:26;11.95;;;2.28;;
32641;SDS011;19323;56.072;9.698;2022-11-20T08:22:52;9.20;;;2.15;;
32641;SDS011;19323;56.072;9.698;2022-11-20T08:25:17;15.13;;;2.55;;
32641;SDS011;19323;56.072;9.698;2022-11-20T08:27:42;12.93;;;2.65;;
32641;SDS011;19323;56.072;9.698;2022-11-20T08:30:08;11.82;;;2.10;;
32641;SDS011;19323;56.072;9.698;2022-11-20T08:32:34;9.30;;;2.17;;
32641;SDS011;19323;56.072;9.698;2022-11-20T08:35:02;13.18;;;2.38;;
32641;SDS011;19323;56.072;9.698;2022-11-20T08:37:27;18.90;;;5.05;;
32641;SDS011;19323;56.072;9.698;2022-11-20T08:39:52;20.70;;;3.63;;
32641;SDS011;19323;56.072;9.698;2022-11-20T08:42:18;20.27;;;4.07;;
32641;SDS011;19323;56.072;9.698;2022-11-20T08:44:44;11.65;;;3.60;;
32641;SDS011;19323;56.072;9.698;2022-11-20T08:47:09;14.52;;;3.25;;
32641;SDS011;19323;56.072;9.698;2022-11-20T08:49:34;13.73;;;3.58;;
32641;SDS011;19323;56.072;9.698;2022-11-20T08:51:59;10.13;;;3.38;;
32641;SDS011;19323;56.072;9.698;2022-11-20T08:54:25;13.57;;;4.22;;
32641;SDS011;19323;56.072;9.698;2022-11-20T08:56:50;16.75;;;3.78;;
32641;SDS011;19323;56.072;9.698;2022-11-20T08:59:16;15.05;;;3.60;;
32641;SDS011;19323;56.072;9.698;2022-11-20T09:01:41;11.43;;;3.03;;
32641;SDS011;19323;56.072;9.698;2022-11-20T09:04:07;7.60;;;2.55;;
32641;SDS011;19323;56.072;9.698;2022-11-20T09:06:32;13.02;;;3.20;;
32641;SDS011;19323;56.072;9.698;2022-11-20T09:08:57;11.60;;;3.20;;
32641;SDS011;19323;56.072;9.698;2022-11-20T09:11:23;12.63;;;3.05;;
32641;SDS011;19323;56.072;9.698;2022-11-20T09:13:48;10.68;;;2.63;;
32641;SDS011;19323;56.072;9.698;2022-11-20T09:16:13;11.60;;;2.72;;
32641;SDS011;19323;56.072;9.698;2022-11-20T09:18:39;7.55;;;2.67;;
32641;SDS011;19323;56.072;9.698;2022-11-20T09:21:05;8.60;;;3.30;;
32641;SDS011;19323;56.072;9.698;2022-11-20T09:23:32;8.73;;;2.17;;
32641;SDS011;19323;56.072;9.698;2022-11-20T09:26:07;10.68;;;2.63;;
32641;SDS011;19323;56.072;9.698;2022-11-20T09:28:35;6.63;;;2.22;;
32641;SDS011;19323;56.072;9.698;2022-11-20T09:31:00;4.03;;;2.10;;
32641;SDS011;19323;56.072;9.698;2022-11-20T09:33:26;8.95;;;2.40;;
32641;SDS011;19323;56.072;9.698;2022-11-20T09:35:51;7.97;;;2.10;;
32641;SDS011;19323;56.072;9.698;2022-11-20T09:38:17;7.18;;;2.70;;
32641;SDS011;19323;56.072;9.698;2022-11-20T09:40:52;12.82;;;2.35;;
32641;SDS011;19323;56.072;9.698;2022-11-20T09:54:38;7.18;;;2.30;;
32641;SDS011;19323;56.072;9.698;2022-11-20T09:57:11;6.32;;;2.03;;
32641;SDS011;19323;56.072;9.698;2022-11-20T09:59:41;7.20;;;2.28;;
32641;SDS011;19323;56.072;9.698;2022-11-20T10:04:47;7.75;;;1.92;;
32641;SDS011;19323;56.072;9.698;2022-11-20T10:10:26;5.32;;;1.77;;
32641;SDS011;19323;56.072;9.698;2022-11-20T10:13:27;7.53;;;2.13;;
32641;SDS011;19323;56.072;9.698;2022-11-20T10:21:30;5.85;;;2.33;;
32641;SDS011;19323;56.072;9.698;2022-11-20T10:32:38;2.92;;;1.70;;
32641;SDS011;19323;56.072;9.698;2022-11-20T10:37:45;3.85;;;1.52;;
32641;SDS011;19323;56.072;9.698;2022-11-20T10:42:49;2.28;;;1.15;;
32641;SDS011;19323;56.072;9.698;2022-11-20T10:47:49;3.03;;;1.10;;
32641;SDS011;19323;56.072;9.698;2022-11-20T10:50:18;2.92;;;1.50;;
32641;SDS011;19323;56.072;9.698;2022-11-20T10:53:06;7.50;;;2.08;;
32641;SDS011;19323;56.072;9.698;2022-11-20T10:55:49;4.18;;;1.35;;
32641;SDS011;19323;56.072;9.698;2022-11-20T11:01:14;9.40;;;1.40;;
32641;SDS011;19323;56.072;9.698;2022-11-20T11:03:43;2.83;;;1.48;;
32641;SDS011;19323;56.072;9.698;2022-11-20T11:09:10;4.38;;;1.52;;
32641;SDS011;19323;56.072;9.698;2022-11-20T11:11:40;7.07;;;2.03;;
32641;SDS011;19323;56.072;9.698;2022-11-20T11:14:06;11.93;;;1.67;;
32641;SDS011;19323;56.072;9.698;2022-11-20T11:16:40;8.38;;;1.70;;
32641;SDS011;19323;56.072;9.698;2022-11-20T11:19:15;10.70;;;1.75;;
32641;SDS011;19323;56.072;9.698;2022-11-20T11:21:49;4.10;;;1.50;;
32641;SDS011;19323;56.072;9.698;2022-11-20T11:24:24;10.73;;;2.38;;
32641;SDS011;19323;56.072;9.698;2022-11-20T11:27:01;7.95;;;1.52;;
32641;SDS011;19323;56.072;9.698;2022-11-20T11:29:32;11.25;;;2.30;;
32641;SDS011;19323;56.072;9.698;2022-11-20T11:37:35;8.45;;;1.42;;
32641;SDS011;19323;56.072;9.698;2022-11-20T11:40:04;8.88;;;2.05;;
32641;SDS011;19323;56.072;9.698;2022-11-20T11:42:31;7.57;;;1.73;;
32641;SDS011;19323;56.072;9.698;2022-11-20T11:44:58;3.45;;;1.60;;
32641;SDS011;19323;56.072;9.698;2022-11-20T11:47:32;5.05;;;1.30;;
32641;SDS011;19323;56.072;9.698;2022-11-20T11:50:02;2.70;;;1.23;;
32641;SDS011;19323;56.072;9.698;2022-11-20T11:52:42;8.48;;;1.80;;
32641;SDS011;19323;56.072;9.698;2022-11-20T11:55:45;3.50;;;1.85;;
32641;SDS011;19323;56.072;9.698;2022-11-20T11:58:31;2.15;;;1.40;;
32641;SDS011;19323;56.072;9.698;2022-11-20T12:01:07;3.47;;;1.10;;
32641;SDS011;19323;56.072;9.698;2022-11-20T12:03:40;2.72;;;1.58;;
32641;SDS011;19323;56.072;9.698;2022-11-20T12:06:13;2.47;;;1.10;;
32641;SDS011;19323;56.072;9.698;2022-11-20T12:11:34;3.58;;;1.17;;
32641;SDS011;19323;56.072;9.698;2022-11-20T12:16:59;3.95;;;1.33;;
32641;SDS011;19323;56.072;9.698;2022-11-20T12:19:26;7.70;;;1.08;;
32641;SDS011;19323;56.072;9.698;2022-11-20T12:22:12;8.07;;;0.80;;
32641;SDS011;19323;56.072;9.698;2022-11-20T12:24:52;5.47;;;1.27;;
32641;SDS011;19323;56.072;9.698;2022-11-20T12:43:30;4.15;;;1.30;;
32641;SDS011;19323;56.072;9.698;2022-11-20T12:49:32;8.35;;;1.35;;
32641;SDS011;19323;56.072;9.698;2022-11-20T12:52:20;6.28;;;2.08;;
32641;SDS011;19323;56.072;9.698;2022-11-20T12:55:11;8.02;;;1.70;;
32641;SDS011;19323;56.072;9.698;2022-11-20T13:00:15;7.20;;;1.83;;
32641;SDS011;19323;56.072;9.698;2022-11-20T13:08:18;7.07;;;2.03;;
32641;SDS011;19323;56.072;9.698;2022-11-20T13:10:56;7.35;;;2.70;;
32641;SDS011;19323;56.072;9.698;2022-11-20T13:13:40;10.80;;;2.17;;
32641;SDS011;19323;56.072;9.698;2022-11-20T13:16:19;9.60;;;2.47;;
32641;SDS011;19323;56.072;9.698;2022-11-20T13:19:27;4.45;;;1.83;;
32641;SDS011;19323;56.072;9.698;2022-11-20T13:21:54;10.57;;;2.25;;
32641;SDS011;19323;56.072;9.698;2022-11-20T13:26:47;9.05;;;1.77;;
32641;SDS011;19323;56.072;9.698;2022-11-20T13:29:24;6.57;;;1.73;;
32641;SDS011;19323;56.072;9.698;2022-11-20T13:31:49;7.15;;;1.90;;
32641;SDS011;19323;56.072;9.698;2022-11-20T13:34:24;8.32;;;1.75;;
32641;SDS011;19323;56.072;9.698;2022-11-20T13:36:52;9.18;;;2.03;;
32641;SDS011;19323;56.072;9.698;2022-11-20T13:39:26;15.52;;;2.30;;
32641;SDS011;19323;56.072;9.698;2022-11-20T13:41:56;6.63;;;1.67;;
32641;SDS011;19323;56.072;9.698;2022-11-20T13:44:46;6.82;;;1.90;;
32641;SDS011;19323;56.072;9.698;2022-11-20T13:47:26;9.75;;;1.70;;
32641;SDS011;19323;56.072;9.698;2022-11-20T13:49:53;5.65;;;2.17;;
32641;SDS011;19323;56.072;9.698;2022-11-20T14:00:27;5.90;;;1.40;;
32641;SDS011;19323;56.072;9.698;2022-11-20T14:03:08;7.80;;;1.40;;
32641;SDS011;19323;56.072;9.698;2022-11-20T14:05:40;4.47;;;1.65;;
32641;SDS011;19323;56.072;9.698;2022-11-20T14:08:18;8.10;;;1.95;;
32641;SDS011;19323;56.072;9.698;2022-11-20T14:10:50;8.02;;;1.77;;
32641;SDS011;19323;56.072;9.698;2022-11-20T14:13:17;11.45;;;1.58;;
32641;SDS011;19323;56.072;9.698;2022-11-20T14:15:43;11.27;;;2.22;;
32641;SDS011;19323;56.072;9.698;2022-11-20T14:18:19;5.68;;;2.05;;
32641;SDS011;19323;56.072;9.698;2022-11-20T14:20:46;7.43;;;1.88;;
32641;SDS011;19323;56.072;9.698;2022-11-20T14:23:12;5.65;;;1.67;;
32641;SDS011;19323;56.072;9.698;2022-11-20T14:25:41;2.55;;;1.40;;
32641;SDS011;19323;56.072;9.698;2022-11-20T14:28:10;8.98;;;2.13;;
32641;SDS011;19323;56.072;9.698;2022-11-20T14:30:44;2.88;;;1.75;;
32641;SDS011;19323;56.072;9.698;2022-11-20T14:33:13;3.78;;;1.42;;
32641;SDS011;19323;56.072;9.698;2022-11-20T14:35:46;5.05;;;1.95;;
32641;SDS011;19323;56.072;9.698;2022-11-20T14:38:15;3.35;;;1.85;;
32641;SDS011;19323;56.072;9.698;2022-11-20T14:40:43;2.75;;;1.23;;
32641;SDS011;19323;56.072;9.698;2022-11-20T14:43:20;6.35;;;1.63;;
32641;SDS011;19323;56.072;9.698;2022-11-20T14:46:00;10.18;;;2.10;;
32641;SDS011;19323;56.072;9.698;2022-11-20T14:48:50;4.68;;;1.17;;
32641;SDS011;19323;56.072;9.698;2022-11-20T14:51:31;7.57;;;1.73;;
32641;SDS011;19323;56.072;9.698;2022-11-20T14:54:14;4.95;;;1.65;;
32641;SDS011;19323;56.072;9.698;2022-11-20T14:56:41;2.13;;;1.35;;
32641;SDS011;19323;56.072;9.698;2022-11-20T14:59:07;8.60;;;1.65;;
32641;SDS011;19323;56.072;9.698;2022-11-20T15:01:34;8.30;;;1.20;;
32641;SDS011;19323;56.072;9.698;2022-11-20T15:04:08;15.80;;;1.95;;
32641;SDS011;19323;56.072;9.698;2022-11-20T15:06:35;3.60;;;1.42;;
32641;SDS011;19323;56.072;9.698;2022-11-20T15:09:04;7.55;;;1.33;;
32641;SDS011;19323;56.072;9.698;2022-11-20T15:11:37;4.30;;;1.05;;
32641;SDS011;19323;56.072;9.698;2022-11-20T15:14:04;4.47;;;1.45;;
32641;SDS011;19323;56.072;9.698;2022-11-20T15:16:31;7.65;;;1.15;;
32641;SDS011;19323;56.072;9.698;2022-11-20T15:18:57;2.72;;;1.55;;
32641;SDS011;19323;56.072;9.698;2022-11-20T15:21:23;4.75;;;1.48;;
32641;SDS011;19323;56.072;9.698;2022-11-20T15:23:49;3.25;;;1.30;;
32641;SDS011;19323;56.072;9.698;2022-11-20T15:26:18;6.85;;;1.25;;
32641;SDS011;19323;56.072;9.698;2022-11-20T15:28:53;3.97;;;1.38;;
32641;SDS011;19323;56.072;9.698;2022-11-20T15:31:20;3.50;;;1.50;;
32641;SDS011;19323;56.072;9.698;2022-11-20T15:33:47;3.30;;;0.73;;
32641;SDS011;19323;56.072;9.698;2022-11-20T15:36:13;5.15;;;1.50;;
32641;SDS011;19323;56.072;9.698;2022-11-20T15:38:39;4.13;;;1.13;;
32641;SDS011;19323;56.072;9.698;2022-11-20T15:41:05;6.80;;;1.25;;
32641;SDS011;19323;56.072;9.698;2022-11-20T15:43:31;4.50;;;1.42;;
32641;SDS011;19323;56.072;9.698;2022-11-20T15:45:58;3.28;;;1.05;;
32641;SDS011;19323;56.072;9.698;2022-11-20T15:48:29;6.82;;;1.73;;
32641;SDS011;19323;56.072;9.698;2022-11-20T15:53:40;6.90;;;1.75;;
32641;SDS011;19323;56.072;9.698;2022-11-20T15:56:09;17.98;;;2.80;;
32641;SDS011;19323;56.072;9.698;2022-11-20T15:58:36;4.82;;;2.33;;
32641;SDS011;19323;56.072;9.698;2022-11-20T16:01:02;15.65;;;3.92;;
32641;SDS011;19323;56.072;9.698;2022-11-20T16:03:27;16.83;;;4.93;;
32641;SDS011;19323;56.072;9.698;2022-11-20T16:05:52;21.77;;;6.15;;
32641;SDS011;19323;56.072;9.698;2022-11-20T16:08:18;16.45;;;5.47;;
32641;SDS011;19323;56.072;9.698;2022-11-20T16:10:43;28.13;;;6.15;;
32641;SDS011;19323;56.072;9.698;2022-11-20T16:13:15;21.00;;;7.15;;
32641;SDS011;19323;56.072;9.698;2022-11-20T16:16:05;22.02;;;6.75;;
32641;SDS011;19323;56.072;9.698;2022-11-20T16:18:34;19.90;;;7.00;;
32641;SDS011;19323;56.072;9.698;2022-11-20T16:20:59;20.38;;;6.93;;
32641;SDS011;19323;56.072;9.698;2022-11-20T16:23:25;20.08;;;6.32;;
32641;SDS011;19323;56.072;9.698;2022-11-20T16:25:50;17.95;;;6.22;;
32641;SDS011;19323;56.072;9.698;2022-11-20T16:28:16;18.60;;;6.20;;
32641;SDS011;19323;56.072;9.698;2022-11-20T16:30:42;25.45;;;7.28;;
32641;SDS011;19323;56.072;9.698;2022-11-20T16:33:14;15.77;;;6.78;;
32641;SDS011;19323;56.072;9.698;2022-11-20T16:35:42;19.55;;;6.10;;
32641;SDS011;19323;56.072;9.698;2022-11-20T16:38:07;19.48;;;6.65;;
32641;SDS011;19323;56.072;9.698;2022-11-20T16:40:33;18.75;;;6.03;;
32641;SDS011;19323;56.072;9.698;2022-11-20T16:43:01;21.20;;;5.82;;